sensor_id;sensor_type;location;lat;lon;timestamp;P1;durP1;ratioP1;P2;durP2;ratioP2
19339;SDS011;9804;52.350;6.684;2022-08-21T00:01:19;6.85;;;4.50;;
19339;SDS011;9804;52.350;6.684;2022-08-21T00:03:48;7.15;;;4.80;;
19339;SDS011;9804;52.350;6.684;2022-08-21T00:06:14;10.95;;;5.55;;
19339;SDS011;9804;52.350;6.684;2022-08-21T00:08:39;9.98;;;5.05;;
19339;SDS011;9804;52.350;6.684;2022-08-21T00:11:05;10.75;;;4.47;;
19339;SDS011;9804;52.350;6.684;2022-08-21T00:13:32;10.57;;;5.30;;
19339;SDS011;9804;52.350;6.684;2022-08-21T00:15:57;6.38;;;5.00;;
19339;SDS011;9804;52.350;6.684;2022-08-21T00:18:23;14.77;;;7.10;;
19339;SDS011;9804;52.350;6.684;2022-08-21T00:20:49;13.43;;;6.53;;
19339;SDS011;9804;52.350;6.684;2022-08-21T00:23:15;9.90;;;6.45;;
19339;SDS011;9804;52.350;6.684;2022-08-21T00:25:41;12.60;;;7.53;;
19339;SDS011;9804;52.350;6.684;2022-08-21T00:28:08;14.10;;;7.78;;
19339;SDS011;9804;52.350;6.684;2022-08-21T00:30:33;11.32;;;7.03;;
19339;SDS011;9804;52.350;6.684;2022-08-21T00:32:59;11.00;;;7.13;;
19339;SDS011;9804;52.350;6.684;2022-08-21T00:35:28;12.57;;;7.38;;
19339;SDS011;9804;52.350;6.684;2022-08-21T00:37:55;11.68;;;7.60;;
19339;SDS011;9804;52.350;6.684;2022-08-21T00:40:23;11.00;;;7.50;;
19339;SDS011;9804;52.350;6.684;2022-08-21T00:42:51;12.52;;;6.57;;
19339;SDS011;9804;52.350;6.684;2022-08-21T00:45:17;10.23;;;6.97;;
19339;SDS011;9804;52.350;6.684;2022-08-21T00:47:42;12.77;;;7.30;;
19339;SDS011;9804;52.350;6.684;2022-08-21T00:50:08;13.45;;;7.35;;
19339;SDS011;9804;52.350;6.684;2022-08-21T00:52:35;10.73;;;7.38;;
19339;SDS011;9804;52.350;6.684;2022-08-21T00:55:03;12.38;;;7.88;;
19339;SDS011;9804;52.350;6.684;2022-08-21T00:57:35;10.52;;;7.25;;
19339;SDS011;9804;52.350;6.684;2022-08-21T01:00:05;14.10;;;7.38;;
19339;SDS011;9804;52.350;6.684;2022-08-21T01:02:33;13.80;;;7.80;;
19339;SDS011;9804;52.350;6.684;2022-08-21T01:04:58;14.57;;;7.20;;
19339;SDS011;9804;52.350;6.684;2022-08-21T01:07:24;13.75;;;7.30;;
19339;SDS011;9804;52.350;6.684;2022-08-21T01:09:50;15.52;;;8.60;;
19339;SDS011;9804;52.350;6.684;2022-08-21T01:12:16;13.82;;;8.02;;
19339;SDS011;9804;52.350;6.684;2022-08-21T01:14:42;16.67;;;9.13;;
19339;SDS011;9804;52.350;6.684;2022-08-21T01:17:08;16.45;;;8.93;;
19339;SDS011;9804;52.350;6.684;2022-08-21T01:19:36;11.43;;;8.32;;
19339;SDS011;9804;52.350;6.684;2022-08-21T01:22:01;11.80;;;8.23;;
19339;SDS011;9804;52.350;6.684;2022-08-21T01:24:27;14.30;;;7.65;;
19339;SDS011;9804;52.350;6.684;2022-08-21T01:26:52;12.85;;;8.07;;
19339;SDS011;9804;52.350;6.684;2022-08-21T01:29:34;8.80;;;7.45;;
19339;SDS011;9804;52.350;6.684;2022-08-21T01:32:05;11.80;;;7.70;;
19339;SDS011;9804;52.350;6.684;2022-08-21T01:34:34;13.10;;;8.40;;
19339;SDS011;9804;52.350;6.684;2022-08-21T01:37:02;16.02;;;8.88;;
19339;SDS011;9804;52.350;6.684;2022-08-21T01:39:28;17.90;;;9.30;;
19339;SDS011;9804;52.350;6.684;2022-08-21T01:41:54;13.63;;;9.30;;
19339;SDS011;9804;52.350;6.684;2022-08-21T01:44:20;17.85;;;9.57;;
19339;SDS011;9804;52.350;6.684;2022-08-21T01:46:46;14.45;;;9.88;;
19339;SDS011;9804;52.350;6.684;2022-08-21T01:49:13;12.70;;;8.65;;
19339;SDS011;9804;52.350;6.684;2022-08-21T01:51:38;14.52;;;8.98;;
19339;SDS011;9804;52.350;6.684;2022-08-21T01:54:04;11.63;;;9.00;;
19339;SDS011;9804;52.350;6.684;2022-08-21T01:56:31;11.15;;;8.02;;
19339;SDS011;9804;52.350;6.684;2022-08-21T01:59:01;10.93;;;8.20;;
19339;SDS011;9804;52.350;6.684;2022-08-21T02:01:27;12.25;;;8.35;;
19339;SDS011;9804;52.350;6.684;2022-08-21T02:03:52;11.45;;;8.63;;
19339;SDS011;9804;52.350;6.684;2022-08-21T02:06:17;15.30;;;9.00;;
19339;SDS011;9804;52.350;6.684;2022-08-21T02:08:43;13.25;;;9.38;;
19339;SDS011;9804;52.350;6.684;2022-08-21T02:11:08;13.40;;;9.30;;
19339;SDS011;9804;52.350;6.684;2022-08-21T02:13:34;15.63;;;9.52;;
19339;SDS011;9804;52.350;6.684;2022-08-21T02:15:59;10.98;;;9.60;;
19339;SDS011;9804;52.350;6.684;2022-08-21T02:18:25;16.73;;;9.85;;
19339;SDS011;9804;52.350;6.684;2022-08-21T02:20:50;15.00;;;9.60;;
19339;SDS011;9804;52.350;6.684;2022-08-21T02:23:15;12.73;;;9.23;;
19339;SDS011;9804;52.350;6.684;2022-08-21T02:25:41;15.63;;;10.05;;
19339;SDS011;9804;52.350;6.684;2022-08-21T02:28:08;13.48;;;10.00;;
19339;SDS011;9804;52.350;6.684;2022-08-21T02:30:38;17.50;;;10.65;;
19339;SDS011;9804;52.350;6.684;2022-08-21T02:33:06;17.00;;;10.20;;
19339;SDS011;9804;52.350;6.684;2022-08-21T02:35:34;14.38;;;9.73;;
19339;SDS011;9804;52.350;6.684;2022-08-21T02:38:00;15.68;;;10.15;;
19339;SDS011;9804;52.350;6.684;2022-08-21T02:40:29;13.77;;;9.65;;
19339;SDS011;9804;52.350;6.684;2022-08-21T02:43:00;15.90;;;10.38;;
19339;SDS011;9804;52.350;6.684;2022-08-21T02:45:28;13.40;;;10.32;;
19339;SDS011;9804;52.350;6.684;2022-08-21T02:47:58;15.45;;;10.55;;
19339;SDS011;9804;52.350;6.684;2022-08-21T02:50:28;18.13;;;10.63;;
19339;SDS011;9804;52.350;6.684;2022-08-21T02:52:56;16.88;;;10.52;;
19339;SDS011;9804;52.350;6.684;2022-08-21T02:55:23;12.80;;;10.30;;
19339;SDS011;9804;52.350;6.684;2022-08-21T02:57:51;14.10;;;9.55;;
19339;SDS011;9804;52.350;6.684;2022-08-21T03:00:17;11.73;;;9.98;;
19339;SDS011;9804;52.350;6.684;2022-08-21T03:02:44;14.55;;;10.73;;
19339;SDS011;9804;52.350;6.684;2022-08-21T03:05:11;14.10;;;10.30;;
19339;SDS011;9804;52.350;6.684;2022-08-21T03:07:37;17.17;;;11.07;;
19339;SDS011;9804;52.350;6.684;2022-08-21T03:10:04;16.05;;;11.20;;
19339;SDS011;9804;52.350;6.684;2022-08-21T03:12:31;17.65;;;11.02;;
19339;SDS011;9804;52.350;6.684;2022-08-21T03:14:56;13.85;;;11.30;;
19339;SDS011;9804;52.350;6.684;2022-08-21T03:17:22;13.70;;;10.45;;
19339;SDS011;9804;52.350;6.684;2022-08-21T03:19:48;13.25;;;10.07;;
19339;SDS011;9804;52.350;6.684;2022-08-21T03:22:14;15.43;;;11.40;;
19339;SDS011;9804;52.350;6.684;2022-08-21T03:24:39;12.68;;;10.40;;
19339;SDS011;9804;52.350;6.684;2022-08-21T03:27:04;14.70;;;10.65;;
19339;SDS011;9804;52.350;6.684;2022-08-21T03:29:30;13.25;;;10.43;;
19339;SDS011;9804;52.350;6.684;2022-08-21T03:31:55;14.10;;;10.82;;
19339;SDS011;9804;52.350;6.684;2022-08-21T03:34:20;16.52;;;10.98;;
19339;SDS011;9804;52.350;6.684;2022-08-21T03:36:46;15.55;;;10.00;;
19339;SDS011;9804;52.350;6.684;2022-08-21T03:39:12;15.40;;;10.80;;
19339;SDS011;9804;52.350;6.684;2022-08-21T03:41:37;18.17;;;11.20;;
19339;SDS011;9804;52.350;6.684;2022-08-21T03:44:03;20.27;;;12.02;;
19339;SDS011;9804;52.350;6.684;2022-08-21T03:46:28;16.35;;;12.05;;
19339;SDS011;9804;52.350;6.684;2022-08-21T03:48:53;15.80;;;10.93;;
19339;SDS011;9804;52.350;6.684;2022-08-21T03:51:20;13.35;;;11.52;;
19339;SDS011;9804;52.350;6.684;2022-08-21T03:53:45;14.75;;;11.40;;
19339;SDS011;9804;52.350;6.684;2022-08-21T03:56:11;17.77;;;12.10;;
19339;SDS011;9804;52.350;6.684;2022-08-21T03:58:36;14.60;;;11.02;;
19339;SDS011;9804;52.350;6.684;2022-08-21T04:01:03;18.42;;;11.63;;
19339;SDS011;9804;52.350;6.684;2022-08-21T04:03:31;17.83;;;12.23;;
19339;SDS011;9804;52.350;6.684;2022-08-21T04:05:58;17.17;;;12.45;;
19339;SDS011;9804;52.350;6.684;2022-08-21T04:08:24;16.30;;;13.57;;
19339;SDS011;9804;52.350;6.684;2022-08-21T04:10:51;21.10;;;14.48;;
19339;SDS011;9804;52.350;6.684;2022-08-21T04:13:18;19.75;;;13.57;;
19339;SDS011;9804;52.350;6.684;2022-08-21T04:15:44;18.27;;;13.80;;
19339;SDS011;9804;52.350;6.684;2022-08-21T04:18:10;19.67;;;14.07;;
19339;SDS011;9804;52.350;6.684;2022-08-21T04:20:35;20.95;;;13.63;;
19339;SDS011;9804;52.350;6.684;2022-08-21T04:23:02;16.73;;;13.10;;
19339;SDS011;9804;52.350;6.684;2022-08-21T04:25:28;17.60;;;13.90;;
19339;SDS011;9804;52.350;6.684;2022-08-21T04:27:53;18.02;;;14.35;;
19339;SDS011;9804;52.350;6.684;2022-08-21T04:30:19;16.05;;;13.57;;
19339;SDS011;9804;52.350;6.684;2022-08-21T04:32:46;18.20;;;13.65;;
19339;SDS011;9804;52.350;6.684;2022-08-21T04:35:14;19.92;;;13.82;;
19339;SDS011;9804;52.350;6.684;2022-08-21T04:37:40;21.08;;;14.55;;
19339;SDS011;9804;52.350;6.684;2022-08-21T04:40:06;18.60;;;14.30;;
19339;SDS011;9804;52.350;6.684;2022-08-21T04:42:40;19.88;;;15.23;;
19339;SDS011;9804;52.350;6.684;2022-08-21T04:45:09;20.85;;;15.35;;
19339;SDS011;9804;52.350;6.684;2022-08-21T04:47:34;20.67;;;13.93;;
19339;SDS011;9804;52.350;6.684;2022-08-21T04:50:00;18.48;;;14.68;;
19339;SDS011;9804;52.350;6.684;2022-08-21T04:52:25;19.38;;;14.25;;
19339;SDS011;9804;52.350;6.684;2022-08-21T04:54:50;20.20;;;14.13;;
19339;SDS011;9804;52.350;6.684;2022-08-21T04:57:17;20.83;;;14.25;;
19339;SDS011;9804;52.350;6.684;2022-08-21T04:59:47;22.13;;;15.25;;
19339;SDS011;9804;52.350;6.684;2022-08-21T05:02:15;19.00;;;13.30;;
19339;SDS011;9804;52.350;6.684;2022-08-21T05:04:42;16.20;;;14.50;;
19339;SDS011;9804;52.350;6.684;2022-08-21T05:07:12;17.95;;;14.77;;
19339;SDS011;9804;52.350;6.684;2022-08-21T05:09:41;19.27;;;14.73;;
19339;SDS011;9804;52.350;6.684;2022-08-21T05:12:07;21.23;;;14.98;;
19339;SDS011;9804;52.350;6.684;2022-08-21T05:14:32;17.15;;;15.00;;
19339;SDS011;9804;52.350;6.684;2022-08-21T05:16:58;21.80;;;14.70;;
19339;SDS011;9804;52.350;6.684;2022-08-21T05:19:23;21.90;;;15.40;;
19339;SDS011;9804;52.350;6.684;2022-08-21T05:21:49;18.65;;;15.02;;
19339;SDS011;9804;52.350;6.684;2022-08-21T05:24:15;21.38;;;15.35;;
19339;SDS011;9804;52.350;6.684;2022-08-21T05:26:40;17.42;;;13.98;;
19339;SDS011;9804;52.350;6.684;2022-08-21T05:29:06;18.42;;;15.52;;
19339;SDS011;9804;52.350;6.684;2022-08-21T05:31:31;23.52;;;14.63;;
19339;SDS011;9804;52.350;6.684;2022-08-21T05:33:57;19.58;;;15.20;;
19339;SDS011;9804;52.350;6.684;2022-08-21T05:36:22;21.30;;;15.73;;
19339;SDS011;9804;52.350;6.684;2022-08-21T05:38:48;21.55;;;15.13;;
19339;SDS011;9804;52.350;6.684;2022-08-21T05:41:13;16.88;;;14.75;;
19339;SDS011;9804;52.350;6.684;2022-08-21T05:43:39;20.85;;;15.77;;
19339;SDS011;9804;52.350;6.684;2022-08-21T05:46:05;19.33;;;15.02;;
19339;SDS011;9804;52.350;6.684;2022-08-21T05:48:31;22.08;;;14.93;;
19339;SDS011;9804;52.350;6.684;2022-08-21T05:51:03;18.63;;;14.75;;
19339;SDS011;9804;52.350;6.684;2022-08-21T05:53:32;19.70;;;15.32;;
19339;SDS011;9804;52.350;6.684;2022-08-21T05:55:58;18.63;;;14.27;;
19339;SDS011;9804;52.350;6.684;2022-08-21T05:58:23;20.02;;;14.73;;
19339;SDS011;9804;52.350;6.684;2022-08-21T06:00:49;21.98;;;14.98;;
19339;SDS011;9804;52.350;6.684;2022-08-21T06:03:25;19.90;;;13.80;;
19339;SDS011;9804;52.350;6.684;2022-08-21T06:05:53;18.08;;;12.48;;
19339;SDS011;9804;52.350;6.684;2022-08-21T06:08:20;14.77;;;10.77;;
19339;SDS011;9804;52.350;6.684;2022-08-21T06:10:46;15.65;;;10.88;;
19339;SDS011;9804;52.350;6.684;2022-08-21T06:13:13;13.75;;;9.75;;
19339;SDS011;9804;52.350;6.684;2022-08-21T06:15:39;14.50;;;9.65;;
19339;SDS011;9804;52.350;6.684;2022-08-21T06:18:05;15.70;;;9.82;;
19339;SDS011;9804;52.350;6.684;2022-08-21T06:20:30;12.00;;;9.88;;
19339;SDS011;9804;52.350;6.684;2022-08-21T06:22:56;15.75;;;10.70;;
19339;SDS011;9804;52.350;6.684;2022-08-21T06:25:22;14.70;;;10.63;;
19339;SDS011;9804;52.350;6.684;2022-08-21T06:27:48;15.65;;;9.68;;
19339;SDS011;9804;52.350;6.684;2022-08-21T06:30:14;13.77;;;9.80;;
19339;SDS011;9804;52.350;6.684;2022-08-21T06:32:39;15.07;;;10.27;;
19339;SDS011;9804;52.350;6.684;2022-08-21T06:35:05;14.18;;;10.35;;
19339;SDS011;9804;52.350;6.684;2022-08-21T06:37:31;14.07;;;10.20;;
19339;SDS011;9804;52.350;6.684;2022-08-21T06:39:58;16.70;;;9.40;;
19339;SDS011;9804;52.350;6.684;2022-08-21T06:42:23;13.48;;;9.57;;
19339;SDS011;9804;52.350;6.684;2022-08-21T06:44:49;18.13;;;9.02;;
19339;SDS011;9804;52.350;6.684;2022-08-21T06:47:14;18.55;;;9.27;;
19339;SDS011;9804;52.350;6.684;2022-08-21T06:49:40;15.55;;;9.05;;
19339;SDS011;9804;52.350;6.684;2022-08-21T06:52:10;13.55;;;9.55;;
19339;SDS011;9804;52.350;6.684;2022-08-21T06:54:37;15.43;;;9.23;;
19339;SDS011;9804;52.350;6.684;2022-08-21T06:57:03;13.95;;;9.35;;
19339;SDS011;9804;52.350;6.684;2022-08-21T06:59:28;11.30;;;7.72;;
19339;SDS011;9804;52.350;6.684;2022-08-21T07:01:54;13.25;;;7.65;;
19339;SDS011;9804;52.350;6.684;2022-08-21T07:04:19;11.25;;;8.15;;
19339;SDS011;9804;52.350;6.684;2022-08-21T07:06:45;10.48;;;8.25;;
19339;SDS011;9804;52.350;6.684;2022-08-21T07:09:10;10.95;;;8.05;;
19339;SDS011;9804;52.350;6.684;2022-08-21T07:11:36;12.73;;;8.77;;
19339;SDS011;9804;52.350;6.684;2022-08-21T07:14:02;13.25;;;7.95;;
19339;SDS011;9804;52.350;6.684;2022-08-21T07:16:27;18.23;;;9.48;;
19339;SDS011;9804;52.350;6.684;2022-08-21T07:18:53;10.40;;;7.95;;
19339;SDS011;9804;52.350;6.684;2022-08-21T07:21:18;12.23;;;8.85;;
19339;SDS011;9804;52.350;6.684;2022-08-21T07:23:45;14.18;;;8.32;;
19339;SDS011;9804;52.350;6.684;2022-08-21T07:26:14;12.30;;;8.98;;
19339;SDS011;9804;52.350;6.684;2022-08-21T07:28:40;11.90;;;8.40;;
19339;SDS011;9804;52.350;6.684;2022-08-21T07:31:06;12.55;;;8.57;;
19339;SDS011;9804;52.350;6.684;2022-08-21T07:33:34;14.40;;;9.48;;
19339;SDS011;9804;52.350;6.684;2022-08-21T07:36:00;13.68;;;8.77;;
19339;SDS011;9804;52.350;6.684;2022-08-21T07:38:26;11.07;;;7.20;;
19339;SDS011;9804;52.350;6.684;2022-08-21T07:40:52;12.80;;;7.75;;
19339;SDS011;9804;52.350;6.684;2022-08-21T07:43:20;16.02;;;7.60;;
19339;SDS011;9804;52.350;6.684;2022-08-21T07:45:46;13.55;;;7.93;;
19339;SDS011;9804;52.350;6.684;2022-08-21T07:48:14;12.40;;;7.95;;
19339;SDS011;9804;52.350;6.684;2022-08-21T07:50:39;14.15;;;7.60;;
19339;SDS011;9804;52.350;6.684;2022-08-21T07:53:06;10.00;;;8.05;;
19339;SDS011;9804;52.350;6.684;2022-08-21T07:55:32;10.35;;;6.97;;
19339;SDS011;9804;52.350;6.684;2022-08-21T07:57:57;9.32;;;6.50;;
19339;SDS011;9804;52.350;6.684;2022-08-21T08:00:24;11.23;;;6.30;;
19339;SDS011;9804;52.350;6.684;2022-08-21T08:02:51;12.13;;;7.20;;
19339;SDS011;9804;52.350;6.684;2022-08-21T08:05:19;14.23;;;6.93;;
19339;SDS011;9804;52.350;6.684;2022-08-21T08:07:47;10.35;;;5.68;;
19339;SDS011;9804;52.350;6.684;2022-08-21T08:10:12;10.35;;;6.05;;
19339;SDS011;9804;52.350;6.684;2022-08-21T08:12:39;12.40;;;6.95;;
19339;SDS011;9804;52.350;6.684;2022-08-21T08:15:06;12.23;;;7.22;;
19339;SDS011;9804;52.350;6.684;2022-08-21T08:17:34;10.48;;;6.70;;
19339;SDS011;9804;52.350;6.684;2022-08-21T08:19:59;9.48;;;6.30;;
19339;SDS011;9804;52.350;6.684;2022-08-21T08:22:25;10.48;;;6.38;;
19339;SDS011;9804;52.350;6.684;2022-08-21T08:24:51;15.00;;;6.65;;
19339;SDS011;9804;52.350;6.684;2022-08-21T08:27:18;9.70;;;6.38;;
19339;SDS011;9804;52.350;6.684;2022-08-21T08:29:44;13.60;;;6.97;;
19339;SDS011;9804;52.350;6.684;2022-08-21T08:32:10;11.70;;;7.80;;
19339;SDS011;9804;52.350;6.684;2022-08-21T08:34:36;12.77;;;7.75;;
19339;SDS011;9804;52.350;6.684;2022-08-21T08:37:02;14.02;;;8.82;;
19339;SDS011;9804;52.350;6.684;2022-08-21T08:39:29;11.52;;;7.25;;
19339;SDS011;9804;52.350;6.684;2022-08-21T08:42:04;11.95;;;7.25;;
19339;SDS011;9804;52.350;6.684;2022-08-21T08:44:40;12.85;;;7.43;;
19339;SDS011;9804;52.350;6.684;2022-08-21T08:47:07;9.23;;;7.00;;
19339;SDS011;9804;52.350;6.684;2022-08-21T08:49:37;16.70;;;6.97;;
19339;SDS011;9804;52.350;6.684;2022-08-21T08:52:10;11.10;;;6.75;;
19339;SDS011;9804;52.350;6.684;2022-08-21T08:54:58;12.23;;;6.43;;
19339;SDS011;9804;52.350;6.684;2022-08-21T08:57:42;13.48;;;6.07;;
19339;SDS011;9804;52.350;6.684;2022-08-21T09:00:11;11.98;;;5.55;;
19339;SDS011;9804;52.350;6.684;2022-08-21T09:02:39;13.98;;;5.03;;
19339;SDS011;9804;52.350;6.684;2022-08-21T09:05:05;8.73;;;4.55;;
19339;SDS011;9804;52.350;6.684;2022-08-21T09:10:12;8.45;;;4.85;;
19339;SDS011;9804;52.350;6.684;2022-08-21T09:24:35;13.07;;;5.00;;
19339;SDS011;9804;52.350;6.684;2022-08-21T09:27:13;11.93;;;5.10;;
19339;SDS011;9804;52.350;6.684;2022-08-21T09:29:42;11.63;;;5.43;;
19339;SDS011;9804;52.350;6.684;2022-08-21T09:32:13;11.70;;;5.50;;
19339;SDS011;9804;52.350;6.684;2022-08-21T09:34:43;10.48;;;4.82;;
19339;SDS011;9804;52.350;6.684;2022-08-21T09:37:22;13.35;;;5.10;;
19339;SDS011;9804;52.350;6.684;2022-08-21T09:39:47;12.38;;;4.50;;
19339;SDS011;9804;52.350;6.684;2022-08-21T09:42:20;14.27;;;4.80;;
19339;SDS011;9804;52.350;6.684;2022-08-21T09:44:48;7.75;;;4.32;;
19339;SDS011;9804;52.350;6.684;2022-08-21T09:47:13;10.52;;;5.07;;
19339;SDS011;9804;52.350;6.684;2022-08-21T09:49:40;12.13;;;5.18;;
19339;SDS011;9804;52.350;6.684;2022-08-21T09:52:17;9.80;;;5.47;;
19339;SDS011;9804;52.350;6.684;2022-08-21T09:54:48;9.93;;;4.93;;
19339;SDS011;9804;52.350;6.684;2022-08-21T09:57:23;11.07;;;5.05;;
19339;SDS011;9804;52.350;6.684;2022-08-21T10:00:19;11.25;;;4.70;;
19339;SDS011;9804;52.350;6.684;2022-08-21T10:02:47;10.55;;;4.40;;
19339;SDS011;9804;52.350;6.684;2022-08-21T10:05:18;12.10;;;4.60;;
19339;SDS011;9804;52.350;6.684;2022-08-21T10:07:48;8.93;;;4.63;;
19339;SDS011;9804;52.350;6.684;2022-08-21T10:10:19;9.77;;;5.20;;
19339;SDS011;9804;52.350;6.684;2022-08-21T10:12:51;10.88;;;4.00;;
19339;SDS011;9804;52.350;6.684;2022-08-21T10:15:34;8.30;;;4.30;;
19339;SDS011;9804;52.350;6.684;2022-08-21T10:18:27;7.35;;;3.85;;
19339;SDS011;9804;52.350;6.684;2022-08-21T10:21:15;8.73;;;4.10;;
19339;SDS011;9804;52.350;6.684;2022-08-21T10:23:51;9.32;;;3.83;;
19339;SDS011;9804;52.350;6.684;2022-08-21T10:26:40;6.55;;;3.88;;
19339;SDS011;9804;52.350;6.684;2022-08-21T10:32:09;6.85;;;3.50;;
19339;SDS011;9804;52.350;6.684;2022-08-21T10:37:18;12.38;;;3.78;;
19339;SDS011;9804;52.350;6.684;2022-08-21T10:45:52;7.55;;;2.78;;
19339;SDS011;9804;52.350;6.684;2022-08-21T10:48:38;6.50;;;2.65;;
19339;SDS011;9804;52.350;6.684;2022-08-21T10:51:15;10.93;;;3.53;;
19339;SDS011;9804;52.350;6.684;2022-08-21T10:56:38;5.90;;;2.40;;
19339;SDS011;9804;52.350;6.684;2022-08-21T10:59:19;7.55;;;2.67;;
19339;SDS011;9804;52.350;6.684;2022-08-21T11:05:02;4.47;;;1.85;;
19339;SDS011;9804;52.350;6.684;2022-08-21T11:07:45;5.53;;;1.80;;
19339;SDS011;9804;52.350;6.684;2022-08-21T11:10:22;4.70;;;2.05;;
19339;SDS011;9804;52.350;6.684;2022-08-21T11:13:12;5.97;;;2.20;;
19339;SDS011;9804;52.350;6.684;2022-08-21T11:15:48;6.47;;;1.85;;
19339;SDS011;9804;52.350;6.684;2022-08-21T11:18:21;4.22;;;1.63;;
19339;SDS011;9804;52.350;6.684;2022-08-21T11:23:38;5.25;;;2.00;;
19339;SDS011;9804;52.350;6.684;2022-08-21T11:26:13;7.90;;;2.10;;
19339;SDS011;9804;52.350;6.684;2022-08-21T11:29:13;4.45;;;1.55;;
19339;SDS011;9804;52.350;6.684;2022-08-21T11:34:35;7.38;;;1.63;;
19339;SDS011;9804;52.350;6.684;2022-08-21T11:40:31;5.30;;;1.42;;
19339;SDS011;9804;52.350;6.684;2022-08-21T11:43:21;5.32;;;1.60;;
19339;SDS011;9804;52.350;6.684;2022-08-21T11:54:36;3.65;;;1.50;;
19339;SDS011;9804;52.350;6.684;2022-08-21T11:57:22;6.25;;;1.77;;
19339;SDS011;9804;52.350;6.684;2022-08-21T12:00:21;9.45;;;1.70;;
19339;SDS011;9804;52.350;6.684;2022-08-21T12:02:52;5.20;;;1.52;;
19339;SDS011;9804;52.350;6.684;2022-08-21T12:05:27;7.05;;;1.50;;
19339;SDS011;9804;52.350;6.684;2022-08-21T12:08:05;8.50;;;1.63;;
19339;SDS011;9804;52.350;6.684;2022-08-21T12:10:32;3.83;;;1.23;;
19339;SDS011;9804;52.350;6.684;2022-08-21T12:13:28;4.85;;;1.60;;
19339;SDS011;9804;52.350;6.684;2022-08-21T12:16:05;6.40;;;1.60;;
19339;SDS011;9804;52.350;6.684;2022-08-21T12:18:35;6.68;;;1.95;;
19339;SDS011;9804;52.350;6.684;2022-08-21T12:21:17;5.28;;;1.63;;
19339;SDS011;9804;52.350;6.684;2022-08-21T12:23:57;7.82;;;2.00;;
19339;SDS011;9804;52.350;6.684;2022-08-21T12:26:50;3.95;;;1.63;;
19339;SDS011;9804;52.350;6.684;2022-08-21T12:29:21;7.82;;;1.60;;
19339;SDS011;9804;52.350;6.684;2022-08-21T12:31:52;6.38;;;1.70;;
19339;SDS011;9804;52.350;6.684;2022-08-21T12:34:20;5.68;;;1.60;;
19339;SDS011;9804;52.350;6.684;2022-08-21T12:36:54;9.40;;;2.47;;
19339;SDS011;9804;52.350;6.684;2022-08-21T12:39:26;8.15;;;2.20;;
19339;SDS011;9804;52.350;6.684;2022-08-21T12:42:00;7.90;;;1.65;;
19339;SDS011;9804;52.350;6.684;2022-08-21T12:44:44;7.63;;;1.90;;
19339;SDS011;9804;52.350;6.684;2022-08-21T12:47:30;8.35;;;1.90;;
19339;SDS011;9804;52.350;6.684;2022-08-21T12:50:03;4.03;;;1.30;;
19339;SDS011;9804;52.350;6.684;2022-08-21T12:52:44;8.77;;;1.95;;
19339;SDS011;9804;52.350;6.684;2022-08-21T12:55:24;6.50;;;2.00;;
19339;SDS011;9804;52.350;6.684;2022-08-21T12:57:54;7.22;;;2.00;;
19339;SDS011;9804;52.350;6.684;2022-08-21T13:00:21;8.63;;;1.63;;
19339;SDS011;9804;52.350;6.684;2022-08-21T13:02:48;5.47;;;1.50;;
19339;SDS011;9804;52.350;6.684;2022-08-21T13:05:22;4.70;;;1.83;;
19339;SDS011;9804;52.350;6.684;2022-08-21T13:08:17;7.72;;;1.58;;
19339;SDS011;9804;52.350;6.684;2022-08-21T13:10:44;6.88;;;1.83;;
19339;SDS011;9804;52.350;6.684;2022-08-21T13:13:19;8.27;;;1.80;;
19339;SDS011;9804;52.350;6.684;2022-08-21T13:15:46;5.60;;;1.88;;
19339;SDS011;9804;52.350;6.684;2022-08-21T13:18:19;5.70;;;1.63;;
19339;SDS011;9804;52.350;6.684;2022-08-21T13:20:47;5.25;;;1.73;;
19339;SDS011;9804;52.350;6.684;2022-08-21T13:23:21;7.95;;;1.83;;
19339;SDS011;9804;52.350;6.684;2022-08-21T13:25:50;8.13;;;1.67;;
19339;SDS011;9804;52.350;6.684;2022-08-21T13:28:15;5.40;;;1.70;;
19339;SDS011;9804;52.350;6.684;2022-08-21T13:30:45;5.55;;;1.90;;
19339;SDS011;9804;52.350;6.684;2022-08-21T13:33:13;5.45;;;2.00;;
19339;SDS011;9804;52.350;6.684;2022-08-21T13:38:22;6.45;;;1.73;;
19339;SDS011;9804;52.350;6.684;2022-08-21T13:40:54;6.30;;;1.80;;
19339;SDS011;9804;52.350;6.684;2022-08-21T13:43:25;7.60;;;1.65;;
19339;SDS011;9804;52.350;6.684;2022-08-21T13:45:53;7.20;;;1.70;;
19339;SDS011;9804;52.350;6.684;2022-08-21T13:48:21;4.38;;;1.70;;
19339;SDS011;9804;52.350;6.684;2022-08-21T13:50:48;6.70;;;2.33;;
19339;SDS011;9804;52.350;6.684;2022-08-21T13:56:09;6.63;;;1.85;;
19339;SDS011;9804;52.350;6.684;2022-08-21T13:58:58;5.93;;;1.55;;
19339;SDS011;9804;52.350;6.684;2022-08-21T14:01:28;5.50;;;1.80;;
19339;SDS011;9804;52.350;6.684;2022-08-21T14:03:58;4.68;;;1.52;;
19339;SDS011;9804;52.350;6.684;2022-08-21T14:06:32;4.32;;;1.77;;
19339;SDS011;9804;52.350;6.684;2022-08-21T14:09:00;6.57;;;1.50;;
19339;SDS011;9804;52.350;6.684;2022-08-21T14:11:33;6.22;;;1.67;;
19339;SDS011;9804;52.350;6.684;2022-08-21T14:14:01;8.48;;;1.77;;
19339;SDS011;9804;52.350;6.684;2022-08-21T14:16:46;4.22;;;1.40;;
19339;SDS011;9804;52.350;6.684;2022-08-21T14:19:34;5.82;;;2.22;;
19339;SDS011;9804;52.350;6.684;2022-08-21T14:22:20;6.85;;;1.80;;
19339;SDS011;9804;52.350;6.684;2022-08-21T14:24:47;5.38;;;1.75;;
19339;SDS011;9804;52.350;6.684;2022-08-21T14:27:15;4.03;;;1.42;;
19339;SDS011;9804;52.350;6.684;2022-08-21T14:29:42;5.63;;;1.50;;
19339;SDS011;9804;52.350;6.684;2022-08-21T14:32:09;3.58;;;1.60;;
19339;SDS011;9804;52.350;6.684;2022-08-21T14:34:35;6.13;;;1.88;;
19339;SDS011;9804;52.350;6.684;2022-08-21T14:37:00;5.65;;;1.63;;
19339;SDS011;9804;52.350;6.684;2022-08-21T14:39:25;8.85;;;2.17;;
19339;SDS011;9804;52.350;6.684;2022-08-21T14:41:51;4.55;;;1.52;;
19339;SDS011;9804;52.350;6.684;2022-08-21T14:44:17;6.18;;;2.22;;
19339;SDS011;9804;52.350;6.684;2022-08-21T14:46:44;5.78;;;2.17;;
19339;SDS011;9804;52.350;6.684;2022-08-21T14:49:10;6.68;;;1.90;;
19339;SDS011;9804;52.350;6.684;2022-08-21T14:51:36;8.95;;;2.47;;
19339;SDS011;9804;52.350;6.684;2022-08-21T14:54:01;8.38;;;2.10;;
19339;SDS011;9804;52.350;6.684;2022-08-21T14:56:27;3.60;;;2.00;;
19339;SDS011;9804;52.350;6.684;2022-08-21T14:58:52;5.75;;;2.15;;
19339;SDS011;9804;52.350;6.684;2022-08-21T15:01:21;5.10;;;2.35;;
19339;SDS011;9804;52.350;6.684;2022-08-21T15:03:47;6.68;;;2.10;;
19339;SDS011;9804;52.350;6.684;2022-08-21T15:06:13;3.78;;;1.95;;
19339;SDS011;9804;52.350;6.684;2022-08-21T15:08:40;8.95;;;2.00;;
19339;SDS011;9804;52.350;6.684;2022-08-21T15:11:06;5.40;;;2.00;;
19339;SDS011;9804;52.350;6.684;2022-08-21T15:13:33;8.23;;;2.33;;
19339;SDS011;9804;52.350;6.684;2022-08-21T15:15:59;7.53;;;2.55;;
19339;SDS011;9804;52.350;6.684;2022-08-21T15:18:25;6.15;;;1.88;;
19339;SDS011;9804;52.350;6.684;2022-08-21T15:20:51;7.47;;;2.08;;
19339;SDS011;9804;52.350;6.684;2022-08-21T15:23:17;7.85;;;3.28;;
19339;SDS011;9804;52.350;6.684;2022-08-21T15:25:45;6.47;;;2.10;;
19339;SDS011;9804;52.350;6.684;2022-08-21T15:28:12;7.60;;;2.40;;
19339;SDS011;9804;52.350;6.684;2022-08-21T15:30:38;9.82;;;2.28;;
19339;SDS011;9804;52.350;6.684;2022-08-21T15:33:07;6.97;;;2.03;;
19339;SDS011;9804;52.350;6.684;2022-08-21T15:35:34;6.30;;;2.60;;
19339;SDS011;9804;52.350;6.684;2022-08-21T15:37:59;7.10;;;2.33;;
19339;SDS011;9804;52.350;6.684;2022-08-21T15:40:25;6.65;;;2.55;;
19339;SDS011;9804;52.350;6.684;2022-08-21T15:42:52;7.25;;;2.50;;
19339;SDS011;9804;52.350;6.684;2022-08-21T15:45:25;7.35;;;2.30;;
19339;SDS011;9804;52.350;6.684;2022-08-21T15:47:50;6.10;;;2.20;;
19339;SDS011;9804;52.350;6.684;2022-08-21T15:50:17;8.35;;;2.53;;
19339;SDS011;9804;52.350;6.684;2022-08-21T15:52:43;14.07;;;3.33;;
19339;SDS011;9804;52.350;6.684;2022-08-21T15:55:09;9.30;;;3.20;;